sensor_id;sensor_type;location;lat;lon;timestamp;temperature;humidity
13172;DHT22;6651;53.200;10.432;2023-10-31T00:02:07;12.00;99.90
13172;DHT22;6651;53.200;10.432;2023-10-31T00:04:33;12.00;99.90
13172;DHT22;6651;53.200;10.432;2023-10-31T00:06:59;11.90;99.90
13172;DHT22;6651;53.200;10.432;2023-10-31T00:09:24;12.00;99.90
13172;DHT22;6651;53.200;10.432;2023-10-31T00:11:50;12.00;99.90
13172;DHT22;6651;53.200;10.432;2023-10-31T00:14:16;12.00;99.90
13172;DHT22;6651;53.200;10.432;2023-10-31T00:16:42;12.00;99.90
13172;DHT22;6651;53.200;10.432;2023-10-31T00:19:07;11.90;99.90
13172;DHT22;6651;53.200;10.432;2023-10-31T00:21:33;12.00;99.90
13172;DHT22;6651;53.200;10.432;2023-10-31T00:23:59;12.00;99.90
13172;DHT22;6651;53.200;10.432;2023-10-31T00:26:24;12.00;99.90
13172;DHT22;6651;53.200;10.432;2023-10-31T00:28:50;12.00;99.90
13172;DHT22;6651;53.200;10.432;2023-10-31T00:31:15;12.00;99.90
13172;DHT22;6651;53.200;10.432;2023-10-31T00:33:41;12.00;99.90
13172;DHT22;6651;53.200;10.432;2023-10-31T00:36:07;12.00;99.90
13172;DHT22;6651;53.200;10.432;2023-10-31T00:38:33;11.90;99.90
13172;DHT22;6651;53.200;10.432;2023-10-31T00:40:59;11.90;99.90
13172;DHT22;6651;53.200;10.432;2023-10-31T00:43:24;11.90;99.90
13172;DHT22;6651;53.200;10.432;2023-10-31T00:45:50;12.00;99.90
13172;DHT22;6651;53.200;10.432;2023-10-31T00:48:16;11.90;99.90
13172;DHT22;6651;53.200;10.432;2023-10-31T00:50:41;12.00;99.90
13172;DHT22;6651;53.200;10.432;2023-10-31T00:53:07;11.90;99.90
13172;DHT22;6651;53.200;10.432;2023-10-31T00:55:33;11.90;99.90
13172;DHT22;6651;53.200;10.432;2023-10-31T00:57:59;11.90;99.90
13172;DHT22;6651;53.200;10.432;2023-10-31T01:00:24;11.90;99.90
13172;DHT22;6651;53.200;10.432;2023-10-31T01:02:50;11.90;99.90
13172;DHT22;6651;53.200;10.432;2023-10-31T01:05:16;11.90;99.90
13172;DHT22;6651;53.200;10.432;2023-10-31T01:07:42;12.00;99.90
13172;DHT22;6651;53.200;10.432;2023-10-31T01:10:08;12.00;99.90
13172;DHT22;6651;53.200;10.432;2023-10-31T01:12:33;12.00;99.90
13172;DHT22;6651;53.200;10.432;2023-10-31T01:14:59;12.00;99.90
13172;DHT22;6651;53.200;10.432;2023-10-31T01:17:25;12.00;99.90
13172;DHT22;6651;53.200;10.432;2023-10-31T01:19:51;12.10;99.90
13172;DHT22;6651;53.200;10.432;2023-10-31T01:22:16;12.00;99.90
13172;DHT22;6651;53.200;10.432;2023-10-31T01:24:42;12.00;99.90
13172;DHT22;6651;53.200;10.432;2023-10-31T01:27:07;11.90;99.90
13172;DHT22;6651;53.200;10.432;2023-10-31T01:29:33;12.00;99.90
13172;DHT22;6651;53.200;10.432;2023-10-31T01:31:59;11.90;99.90
13172;DHT22;6651;53.200;10.432;2023-10-31T01:34:24;11.90;99.90
13172;DHT22;6651;53.200;10.432;2023-10-31T01:36:50;12.00;99.90
13172;DHT22;6651;53.200;10.432;2023-10-31T01:39:16;11.90;99.90
13172;DHT22;6651;53.200;10.432;2023-10-31T01:41:42;12.00;99.90
13172;DHT22;6651;53.200;10.432;2023-10-31T01:44:08;12.00;99.90
13172;DHT22;6651;53.200;10.432;2023-10-31T01:46:34;12.00;99.90
13172;DHT22;6651;53.200;10.432;2023-10-31T01:49:00;12.00;99.90
13172;DHT22;6651;53.200;10.432;2023-10-31T01:51:26;12.00;99.90
13172;DHT22;6651;53.200;10.432;2023-10-31T01:53:52;12.00;99.90
13172;DHT22;6651;53.200;10.432;2023-10-31T01:56:19;12.00;99.90
13172;DHT22;6651;53.200;10.432;2023-10-31T01:58:45;12.00;99.90
13172;DHT22;6651;53.200;10.432;2023-10-31T02:01:13;12.10;99.90
13172;DHT22;6651;53.200;10.432;2023-10-31T02:03:39;12.10;99.90
13172;DHT22;6651;53.200;10.432;2023-10-31T02:06:05;12.10;99.90
13172;DHT22;6651;53.200;10.432;2023-10-31T02:08:30;12.00;99.90
13172;DHT22;6651;53.200;10.432;2023-10-31T02:10:56;12.00;99.90
13172;DHT22;6651;53.200;10.432;2023-10-31T02:13:22;12.00;99.90
13172;DHT22;6651;53.200;10.432;2023-10-31T02:15:48;12.00;99.90
13172;DHT22;6651;53.200;10.432;2023-10-31T02:18:14;12.00;99.90
13172;DHT22;6651;53.200;10.432;2023-10-31T02:20:40;12.00;99.90
13172;DHT22;6651;53.200;10.432;2023-10-31T02:23:05;12.00;99.90
13172;DHT22;6651;53.200;10.432;2023-10-31T02:25:31;11.90;99.90
13172;DHT22;6651;53.200;10.432;2023-10-31T02:27:57;11.90;99.90
13172;DHT22;6651;53.200;10.432;2023-10-31T02:30:23;12.00;99.90
13172;DHT22;6651;53.200;10.432;2023-10-31T02:32:49;12.00;99.90
13172;DHT22;6651;53.200;10.432;2023-10-31T02:35:16;12.00;99.90
13172;DHT22;6651;53.200;10.432;2023-10-31T02:37:42;12.00;99.90
13172;DHT22;6651;53.200;10.432;2023-10-31T02:40:08;12.00;99.90
13172;DHT22;6651;53.200;10.432;2023-10-31T02:42:34;12.10;99.90
13172;DHT22;6651;53.200;10.432;2023-10-31T02:44:59;12.00;99.90
13172;DHT22;6651;53.200;10.432;2023-10-31T02:47:25;12.10;99.90
13172;DHT22;6651;53.200;10.432;2023-10-31T02:49:51;12.10;99.90
13172;DHT22;6651;53.200;10.432;2023-10-31T02:52:16;12.00;99.90
13172;DHT22;6651;53.200;10.432;2023-10-31T02:54:42;12.00;99.90
13172;DHT22;6651;53.200;10.432;2023-10-31T02:57:08;12.00;99.90
13172;DHT22;6651;53.200;10.432;2023-10-31T02:59:33;12.00;99.90
13172;DHT22;6651;53.200;10.432;2023-10-31T03:01:59;12.00;99.90
13172;DHT22;6651;53.200;10.432;2023-10-31T03:04:25;12.00;99.90
13172;DHT22;6651;53.200;10.432;2023-10-31T03:06:50;12.10;99.90
13172;DHT22;6651;53.200;10.432;2023-10-31T03:09:16;12.10;99.90
13172;DHT22;6651;53.200;10.432;2023-10-31T03:11:42;12.10;99.90
13172;DHT22;6651;53.200;10.432;2023-10-31T03:14:07;12.00;99.90
13172;DHT22;6651;53.200;10.432;2023-10-31T03:16:33;12.00;99.90
13172;DHT22;6651;53.200;10.432;2023-10-31T03:19:00;12.10;99.90
13172;DHT22;6651;53.200;10.432;2023-10-31T03:21:25;12.10;99.90
13172;DHT22;6651;53.200;10.432;2023-10-31T03:23:51;12.10;99.90
13172;DHT22;6651;53.200;10.432;2023-10-31T03:26:21;12.10;99.90
13172;DHT22;6651;53.200;10.432;2023-10-31T03:28:47;12.10;99.90
13172;DHT22;6651;53.200;10.432;2023-10-31T03:31:13;12.10;99.90
13172;DHT22;6651;53.200;10.432;2023-10-31T03:33:39;12.10;99.90
13172;DHT22;6651;53.200;10.432;2023-10-31T03:36:05;12.10;99.90
13172;DHT22;6651;53.200;10.432;2023-10-31T03:38:34;12.10;99.90
13172;DHT22;6651;53.200;10.432;2023-10-31T03:41:01;12.10;99.90
13172;DHT22;6651;53.200;10.432;2023-10-31T03:43:26;12.10;99.90
13172;DHT22;6651;53.200;10.432;2023-10-31T03:45:52;12.10;99.90
13172;DHT22;6651;53.200;10.432;2023-10-31T03:48:18;12.10;99.90
13172;DHT22;6651;53.200;10.432;2023-10-31T03:50:44;12.10;99.90
13172;DHT22;6651;53.200;10.432;2023-10-31T03:53:10;12.10;99.90
13172;DHT22;6651;53.200;10.432;2023-10-31T03:55:36;12.10;99.90
13172;DHT22;6651;53.200;10.432;2023-10-31T03:58:01;12.10;99.90
13172;DHT22;6651;53.200;10.432;2023-10-31T04:00:27;12.20;99.90
13172;DHT22;6651;53.200;10.432;2023-10-31T04:02:53;12.20;99.90
13172;DHT22;6651;53.200;10.432;2023-10-31T04:05:18;12.20;99.90
13172;DHT22;6651;53.200;10.432;2023-10-31T04:07:46;12.20;99.90
13172;DHT22;6651;53.200;10.432;2023-10-31T04:10:12;12.20;99.90
13172;DHT22;6651;53.200;10.432;2023-10-31T04:12:38;12.20;99.90
13172;DHT22;6651;53.200;10.432;2023-10-31T04:15:05;12.30;99.90
13172;DHT22;6651;53.200;10.432;2023-10-31T04:17:31;12.30;99.90
13172;DHT22;6651;53.200;10.432;2023-10-31T04:19:57;12.30;99.90
13172;DHT22;6651;53.200;10.432;2023-10-31T04:22:22;12.30;99.90
13172;DHT22;6651;53.200;10.432;2023-10-31T04:24:48;12.30;99.90
13172;DHT22;6651;53.200;10.432;2023-10-31T04:27:14;12.30;99.90
13172;DHT22;6651;53.200;10.432;2023-10-31T04:29:39;12.30;99.90
13172;DHT22;6651;53.200;10.432;2023-10-31T04:32:05;12.30;99.90
13172;DHT22;6651;53.200;10.432;2023-10-31T04:34:31;12.30;99.90
13172;DHT22;6651;53.200;10.432;2023-10-31T04:36:57;12.30;99.90
13172;DHT22;6651;53.200;10.432;2023-10-31T04:39:23;12.30;99.90
13172;DHT22;6651;53.200;10.432;2023-10-31T04:41:49;12.30;99.90
13172;DHT22;6651;53.200;10.432;2023-10-31T04:44:14;12.40;99.90
13172;DHT22;6651;53.200;10.432;2023-10-31T04:46:40;12.40;99.90
13172;DHT22;6651;53.200;10.432;2023-10-31T04:49:05;12.40;99.90
13172;DHT22;6651;53.200;10.432;2023-10-31T04:51:37;12.50;99.90
13172;DHT22;6651;53.200;10.432;2023-10-31T04:54:04;12.50;99.90
13172;DHT22;6651;53.200;10.432;2023-10-31T04:56:30;12.40;99.90
13172;DHT22;6651;53.200;10.432;2023-10-31T04:58:55;12.40;99.90
13172;DHT22;6651;53.200;10.432;2023-10-31T05:01:21;12.40;99.90
13172;DHT22;6651;53.200;10.432;2023-10-31T05:03:47;12.50;99.90
13172;DHT22;6651;53.200;10.432;2023-10-31T05:06:12;12.40;99.90
13172;DHT22;6651;53.200;10.432;2023-10-31T05:08:38;12.40;99.90
13172;DHT22;6651;53.200;10.432;2023-10-31T05:11:04;12.50;99.90
13172;DHT22;6651;53.200;10.432;2023-10-31T05:13:29;12.50;99.90
13172;DHT22;6651;53.200;10.432;2023-10-31T05:15:55;12.50;99.90
13172;DHT22;6651;53.200;10.432;2023-10-31T05:18:21;12.50;99.90
13172;DHT22;6651;53.200;10.432;2023-10-31T05:20:46;12.50;99.90
13172;DHT22;6651;53.200;10.432;2023-10-31T05:23:12;12.50;99.90
13172;DHT22;6651;53.200;10.432;2023-10-31T05:25:38;12.50;99.90
13172;DHT22;6651;53.200;10.432;2023-10-31T05:28:04;12.40;99.90
13172;DHT22;6651;53.200;10.432;2023-10-31T05:30:30;12.50;99.90
13172;DHT22;6651;53.200;10.432;2023-10-31T05:32:56;12.50;99.90
13172;DHT22;6651;53.200;10.432;2023-10-31T05:35:21;12.40;99.90
13172;DHT22;6651;53.200;10.432;2023-10-31T05:37:47;12.50;99.90
13172;DHT22;6651;53.200;10.432;2023-10-31T05:40:14;12.50;99.90
13172;DHT22;6651;53.200;10.432;2023-10-31T05:42:40;12.50;99.90
13172;DHT22;6651;53.200;10.432;2023-10-31T05:45:06;12.60;99.90
13172;DHT22;6651;53.200;10.432;2023-10-31T05:47:32;12.50;99.90
13172;DHT22;6651;53.200;10.432;2023-10-31T05:50:00;12.50;99.90
13172;DHT22;6651;53.200;10.432;2023-10-31T05:52:29;12.60;99.90
13172;DHT22;6651;53.200;10.432;2023-10-31T05:54:55;12.60;99.90
13172;DHT22;6651;53.200;10.432;2023-10-31T05:57:21;12.60;99.90
13172;DHT22;6651;53.200;10.432;2023-10-31T05:59:47;12.60;99.90
13172;DHT22;6651;53.200;10.432;2023-10-31T06:02:13;12.50;99.90
13172;DHT22;6651;53.200;10.432;2023-10-31T06:04:39;12.50;99.90
13172;DHT22;6651;53.200;10.432;2023-10-31T06:07:05;12.40;99.90
13172;DHT22;6651;53.200;10.432;2023-10-31T06:09:31;12.40;99.90
13172;DHT22;6651;53.200;10.432;2023-10-31T06:11:58;12.40;99.90
13172;DHT22;6651;53.200;10.432;2023-10-31T06:14:24;12.40;99.90
13172;DHT22;6651;53.200;10.432;2023-10-31T06:16:51;12.30;99.90
13172;DHT22;6651;53.200;10.432;2023-10-31T06:19:17;12.30;99.90
13172;DHT22;6651;53.200;10.432;2023-10-31T06:21:43;12.20;99.90
13172;DHT22;6651;53.200;10.432;2023-10-31T06:24:08;12.10;99.90
13172;DHT22;6651;53.200;10.432;2023-10-31T06:26:34;12.10;99.90
13172;DHT22;6651;53.200;10.432;2023-10-31T06:29:00;12.10;99.90
13172;DHT22;6651;53.200;10.432;2023-10-31T06:31:25;12.00;99.90
13172;DHT22;6651;53.200;10.432;2023-10-31T06:33:51;12.00;99.90
13172;DHT22;6651;53.200;10.432;2023-10-31T06:36:16;11.90;99.90
13172;DHT22;6651;53.200;10.432;2023-10-31T06:38:42;11.90;99.90
13172;DHT22;6651;53.200;10.432;2023-10-31T06:41:08;11.90;99.90
13172;DHT22;6651;53.200;10.432;2023-10-31T06:43:33;11.90;99.90
13172;DHT22;6651;53.200;10.432;2023-10-31T06:46:00;11.80;99.90
13172;DHT22;6651;53.200;10.432;2023-10-31T06:48:27;11.70;99.90
13172;DHT22;6651;53.200;10.432;2023-10-31T06:50:53;11.70;99.90
13172;DHT22;6651;53.200;10.432;2023-10-31T06:53:19;11.70;99.90
13172;DHT22;6651;53.200;10.432;2023-10-31T06:55:44;11.60;99.90
13172;DHT22;6651;53.200;10.432;2023-10-31T06:58:10;11.60;99.90
13172;DHT22;6651;53.200;10.432;2023-10-31T07:00:35;11.60;99.90
13172;DHT22;6651;53.200;10.432;2023-10-31T07:03:03;11.50;99.90
13172;DHT22;6651;53.200;10.432;2023-10-31T07:05:32;11.50;99.90
13172;DHT22;6651;53.200;10.432;2023-10-31T07:07:57;11.50;99.90
13172;DHT22;6651;53.200;10.432;2023-10-31T07:10:23;11.40;99.90
13172;DHT22;6651;53.200;10.432;2023-10-31T07:12:49;11.40;99.90
13172;DHT22;6651;53.200;10.432;2023-10-31T07:15:14;11.40;99.90
13172;DHT22;6651;53.200;10.432;2023-10-31T07:17:40;11.40;99.90
13172;DHT22;6651;53.200;10.432;2023-10-31T07:20:06;11.30;99.90
13172;DHT22;6651;53.200;10.432;2023-10-31T07:22:32;11.40;99.90
13172;DHT22;6651;53.200;10.432;2023-10-31T07:24:59;11.30;99.90
13172;DHT22;6651;53.200;10.432;2023-10-31T07:27:28;11.30;99.90
13172;DHT22;6651;53.200;10.432;2023-10-31T07:29:53;11.30;99.90
13172;DHT22;6651;53.200;10.432;2023-10-31T07:32:19;11.30;99.90
13172;DHT22;6651;53.200;10.432;2023-10-31T07:34:44;11.30;99.90
13172;DHT22;6651;53.200;10.432;2023-10-31T07:37:10;11.40;99.90
13172;DHT22;6651;53.200;10.432;2023-10-31T07:39:36;11.40;99.90
13172;DHT22;6651;53.200;10.432;2023-10-31T07:42:01;11.30;99.90
13172;DHT22;6651;53.200;10.432;2023-10-31T07:44:27;11.30;99.90
13172;DHT22;6651;53.200;10.432;2023-10-31T07:46:53;11.30;99.90
13172;DHT22;6651;53.200;10.432;2023-10-31T07:49:19;11.30;99.90
13172;DHT22;6651;53.200;10.432;2023-10-31T07:51:45;11.40;99.90
13172;DHT22;6651;53.200;10.432;2023-10-31T07:54:13;11.40;99.90
13172;DHT22;6651;53.200;10.432;2023-10-31T07:56:39;11.40;99.90
13172;DHT22;6651;53.200;10.432;2023-10-31T07:59:05;11.40;99.90
13172;DHT22;6651;53.200;10.432;2023-10-31T08:01:33;11.40;99.90
13172;DHT22;6651;53.200;10.432;2023-10-31T08:03:59;11.40;99.90
13172;DHT22;6651;53.200;10.432;2023-10-31T08:06:25;11.40;99.90
13172;DHT22;6651;53.200;10.432;2023-10-31T08:08:50;11.40;99.90
13172;DHT22;6651;53.200;10.432;2023-10-31T08:11:16;11.40;99.90
13172;DHT22;6651;53.200;10.432;2023-10-31T08:13:42;11.40;99.90
13172;DHT22;6651;53.200;10.432;2023-10-31T08:16:08;11.40;99.90
13172;DHT22;6651;53.200;10.432;2023-10-31T08:18:34;11.40;99.90
13172;DHT22;6651;53.200;10.432;2023-10-31T08:21:00;11.40;99.90
13172;DHT22;6651;53.200;10.432;2023-10-31T08:23:26;11.40;99.90
13172;DHT22;6651;53.200;10.432;2023-10-31T08:25:52;11.40;99.90
13172;DHT22;6651;53.200;10.432;2023-10-31T08:28:18;11.40;99.90
13172;DHT22;6651;53.200;10.432;2023-10-31T08:30:44;11.40;99.90
13172;DHT22;6651;53.200;10.432;2023-10-31T08:33:09;11.40;99.90
13172;DHT22;6651;53.200;10.432;2023-10-31T08:35:35;11.40;99.90
13172;DHT22;6651;53.200;10.432;2023-10-31T08:38:00;11.40;99.90
13172;DHT22;6651;53.200;10.432;2023-10-31T08:40:26;11.40;99.90
13172;DHT22;6651;53.200;10.432;2023-10-31T08:42:52;11.40;99.90
13172;DHT22;6651;53.200;10.432;2023-10-31T08:45:17;11.40;99.90
13172;DHT22;6651;53.200;10.432;2023-10-31T08:47:43;11.60;99.90
13172;DHT22;6651;53.200;10.432;2023-10-31T08:50:09;11.60;99.90
13172;DHT22;6651;53.200;10.432;2023-10-31T08:52:36;11.60;99.90
13172;DHT22;6651;53.200;10.432;2023-10-31T08:55:02;11.60;99.90
13172;DHT22;6651;53.200;10.432;2023-10-31T08:57:28;11.50;99.90
13172;DHT22;6651;53.200;10.432;2023-10-31T08:59:54;11.50;99.90
13172;DHT22;6651;53.200;10.432;2023-10-31T09:02:19;11.40;99.90
13172;DHT22;6651;53.200;10.432;2023-10-31T09:04:45;11.40;99.90
13172;DHT22;6651;53.200;10.432;2023-10-31T09:07:10;11.40;99.90
13172;DHT22;6651;53.200;10.432;2023-10-31T09:09:36;11.40;99.90
13172;DHT22;6651;53.200;10.432;2023-10-31T09:12:02;11.30;99.90
13172;DHT22;6651;53.200;10.432;2023-10-31T09:14:27;11.30;99.90
13172;DHT22;6651;53.200;10.432;2023-10-31T09:16:53;11.40;99.90
13172;DHT22;6651;53.200;10.432;2023-10-31T09:19:19;11.30;99.90
13172;DHT22;6651;53.200;10.432;2023-10-31T09:21:44;11.30;99.90
13172;DHT22;6651;53.200;10.432;2023-10-31T09:24:11;11.30;99.90
13172;DHT22;6651;53.200;10.432;2023-10-31T09:26:36;11.30;99.90
13172;DHT22;6651;53.200;10.432;2023-10-31T09:29:03;11.20;99.90
13172;DHT22;6651;53.200;10.432;2023-10-31T09:31:29;11.20;99.90
13172;DHT22;6651;53.200;10.432;2023-10-31T09:33:54;11.20;99.90
13172;DHT22;6651;53.200;10.432;2023-10-31T09:36:20;11.20;99.90
13172;DHT22;6651;53.200;10.432;2023-10-31T09:38:45;11.20;99.90
13172;DHT22;6651;53.200;10.432;2023-10-31T09:41:12;11.20;99.90
13172;DHT22;6651;53.200;10.432;2023-10-31T09:43:40;11.30;99.90
13172;DHT22;6651;53.200;10.432;2023-10-31T09:46:05;11.30;99.90
13172;DHT22;6651;53.200;10.432;2023-10-31T09:48:31;11.30;99.90
13172;DHT22;6651;53.200;10.432;2023-10-31T09:50:58;11.30;99.90
13172;DHT22;6651;53.200;10.432;2023-10-31T09:53:24;11.20;99.90
13172;DHT22;6651;53.200;10.432;2023-10-31T09:55:50;11.30;99.90
13172;DHT22;6651;53.200;10.432;2023-10-31T09:58:16;11.30;99.90
13172;DHT22;6651;53.200;10.432;2023-10-31T10:00:42;11.30;99.90
13172;DHT22;6651;53.200;10.432;2023-10-31T10:03:08;11.30;99.90
13172;DHT22;6651;53.200;10.432;2023-10-31T10:05:39;11.20;99.90
13172;DHT22;6651;53.200;10.432;2023-10-31T10:08:07;11.30;99.90
13172;DHT22;6651;53.200;10.432;2023-10-31T10:10:34;11.30;99.90
13172;DHT22;6651;53.200;10.432;2023-10-31T10:12:59;11.20;99.90
13172;DHT22;6651;53.200;10.432;2023-10-31T10:15:28;11.30;99.90
13172;DHT22;6651;53.200;10.432;2023-10-31T10:17:54;11.30;99.90
13172;DHT22;6651;53.200;10.432;2023-10-31T10:20:20;11.30;99.90
13172;DHT22;6651;53.200;10.432;2023-10-31T10:22:46;11.30;99.90
13172;DHT22;6651;53.200;10.432;2023-10-31T10:25:16;11.30;99.90
13172;DHT22;6651;53.200;10.432;2023-10-31T10:27:44;11.20;99.90
13172;DHT22;6651;53.200;10.432;2023-10-31T10:30:11;11.30;99.90
13172;DHT22;6651;53.200;10.432;2023-10-31T10:32:38;11.30;99.90
13172;DHT22;6651;53.200;10.432;2023-10-31T10:35:04;11.30;99.90
13172;DHT22;6651;53.200;10.432;2023-10-31T10:37:30;11.30;99.90
13172;DHT22;6651;53.200;10.432;2023-10-31T10:39:56;11.30;99.90
13172;DHT22;6651;53.200;10.432;2023-10-31T10:42:33;11.30;99.90
13172;DHT22;6651;53.200;10.432;2023-10-31T10:45:03;11.40;99.90
13172;DHT22;6651;53.200;10.432;2023-10-31T10:47:34;11.40;99.90
13172;DHT22;6651;53.200;10.432;2023-10-31T10:50:01;11.40;99.90
13172;DHT22;6651;53.200;10.432;2023-10-31T10:52:35;11.40;99.90
13172;DHT22;6651;53.200;10.432;2023-10-31T10:55:08;11.40;99.90
13172;DHT22;6651;53.200;10.432;2023-10-31T11:00:20;11.50;99.90
13172;DHT22;6651;53.200;10.432;2023-10-31T11:02:51;11.50;99.90
13172;DHT22;6651;53.200;10.432;2023-10-31T11:05:18;11.60;99.90
13172;DHT22;6651;53.200;10.432;2023-10-31T11:07:44;11.60;99.90
13172;DHT22;6651;53.200;10.432;2023-10-31T11:10:11;11.60;99.90
13172;DHT22;6651;53.200;10.432;2023-10-31T11:12:37;11.70;99.90
13172;DHT22;6651;53.200;10.432;2023-10-31T11:15:06;11.70;99.90
13172;DHT22;6651;53.200;10.432;2023-10-31T11:17:34;11.80;99.90
13172;DHT22;6651;53.200;10.432;2023-10-31T11:20:02;11.90;99.90
13172;DHT22;6651;53.200;10.432;2023-10-31T11:22:44;12.00;99.90
13172;DHT22;6651;53.200;10.432;2023-10-31T11:25:17;12.00;99.90
13172;DHT22;6651;53.200;10.432;2023-10-31T11:27:43;12.00;99.90
13172;DHT22;6651;53.200;10.432;2023-10-31T11:30:29;11.90;99.90
13172;DHT22;6651;53.200;10.432;2023-10-31T11:32:58;11.90;99.90
13172;DHT22;6651;53.200;10.432;2023-10-31T11:35:24;11.90;99.90
13172;DHT22;6651;53.200;10.432;2023-10-31T11:38:02;11.90;99.90
13172;DHT22;6651;53.200;10.432;2023-10-31T11:40:35;11.90;99.90
13172;DHT22;6651;53.200;10.432;2023-10-31T11:43:05;11.90;99.90
13172;DHT22;6651;53.200;10.432;2023-10-31T11:45:36;12.00;99.90
13172;DHT22;6651;53.200;10.432;2023-10-31T11:48:03;11.90;99.90
13172;DHT22;6651;53.200;10.432;2023-10-31T11:50:30;12.00;99.90
13172;DHT22;6651;53.200;10.432;2023-10-31T11:53:09;11.90;99.90
13172;DHT22;6651;53.200;10.432;2023-10-31T11:55:41;12.00;99.90
13172;DHT22;6651;53.200;10.432;2023-10-31T11:58:23;12.00;99.90
13172;DHT22;6651;53.200;10.432;2023-10-31T12:01:02;12.00;99.90
13172;DHT22;6651;53.200;10.432;2023-10-31T12:03:40;11.90;99.90
13172;DHT22;6651;53.200;10.432;2023-10-31T12:06:06;11.90;99.90
13172;DHT22;6651;53.200;10.432;2023-10-31T12:08:35;11.90;99.90
13172;DHT22;6651;53.200;10.432;2023-10-31T12:11:25;11.90;99.90
13172;DHT22;6651;53.200;10.432;2023-10-31T12:13:58;11.90;99.90
13172;DHT22;6651;53.200;10.432;2023-10-31T12:16:29;11.90;99.90
13172;DHT22;6651;53.200;10.432;2023-10-31T12:19:02;11.90;99.90
13172;DHT22;6651;53.200;10.432;2023-10-31T12:24:09;11.70;99.90
13172;DHT22;6651;53.200;10.432;2023-10-31T12:26:35;11.70;99.90
13172;DHT22;6651;53.200;10.432;2023-10-31T12:31:33;11.70;99.90
13172;DHT22;6651;53.200;10.432;2023-10-31T12:34:07;11.70;99.90
13172;DHT22;6651;53.200;10.432;2023-10-31T12:36:34;11.70;99.90
13172;DHT22;6651;53.200;10.432;2023-10-31T12:39:01;11.60;99.90
13172;DHT22;6651;53.200;10.432;2023-10-31T12:41:27;11.60;99.90
13172;DHT22;6651;53.200;10.432;2023-10-31T12:43:53;11.60;99.90
13172;DHT22;6651;53.200;10.432;2023-10-31T12:46:29;11.60;99.90
13172;DHT22;6651;53.200;10.432;2023-10-31T12:48:56;11.60;99.90
13172;DHT22;6651;53.200;10.432;2023-10-31T12:51:21;11.70;99.90
13172;DHT22;6651;53.200;10.432;2023-10-31T12:53:53;11.70;99.90
13172;DHT22;6651;53.200;10.432;2023-10-31T12:56:35;11.60;99.90
13172;DHT22;6651;53.200;10.432;2023-10-31T12:59:04;11.60;99.90
13172;DHT22;6651;53.200;10.432;2023-10-31T13:01:30;11.70;99.90
13172;DHT22;6651;53.200;10.432;2023-10-31T13:03:57;11.70;99.90
13172;DHT22;6651;53.200;10.432;2023-10-31T13:06:22;11.70;99.90
13172;DHT22;6651;53.200;10.432;2023-10-31T13:08:48;11.70;99.90
13172;DHT22;6651;53.200;10.432;2023-10-31T13:11:14;11.70;99.90
13172;DHT22;6651;53.200;10.432;2023-10-31T13:13:40;11.70;99.90
13172;DHT22;6651;53.200;10.432;2023-10-31T13:16:06;11.70;99.90
13172;DHT22;6651;53.200;10.432;2023-10-31T13:18:31;11.70;99.90
13172;DHT22;6651;53.200;10.432;2023-10-31T13:20:57;11.70;99.90
13172;DHT22;6651;53.200;10.432;2023-10-31T13:23:23;11.70;99.90
13172;DHT22;6651;53.200;10.432;2023-10-31T13:25:48;11.70;99.90
13172;DHT22;6651;53.200;10.432;2023-10-31T13:28:14;11.70;99.90
13172;DHT22;6651;53.200;10.432;2023-10-31T13:30:41;11.80;99.90
13172;DHT22;6651;53.200;10.432;2023-10-31T13:33:07;11.80;99.90
13172;DHT22;6651;53.200;10.432;2023-10-31T13:35:33;11.70;99.90
13172;DHT22;6651;53.200;10.432;2023-10-31T13:37:59;11.80;99.90
13172;DHT22;6651;53.200;10.432;2023-10-31T13:40:26;11.80;99.90
13172;DHT22;6651;53.200;10.432;2023-10-31T13:42:51;11.90;99.90
13172;DHT22;6651;53.200;10.432;2023-10-31T13:45:17;11.90;99.90
13172;DHT22;6651;53.200;10.432;2023-10-31T13:47:42;11.90;99.90
13172;DHT22;6651;53.200;10.432;2023-10-31T13:50:08;12.00;99.90
13172;DHT22;6651;53.200;10.432;2023-10-31T13:52:34;12.00;99.90
13172;DHT22;6651;53.200;10.432;2023-10-31T13:54:59;12.00;99.90
13172;DHT22;6651;53.200;10.432;2023-10-31T13:57:25;12.00;99.90
13172;DHT22;6651;53.200;10.432;2023-10-31T13:59:51;12.00;99.90
13172;DHT22;6651;53.200;10.432;2023-10-31T14:02:16;11.90;99.90
13172;DHT22;6651;53.200;10.432;2023-10-31T14:04:42;12.00;99.90
13172;DHT22;6651;53.200;10.432;2023-10-31T14:07:08;12.10;99.90
13172;DHT22;6651;53.200;10.432;2023-10-31T14:09:34;12.00;99.90
13172;DHT22;6651;53.200;10.432;2023-10-31T14:11:59;12.00;99.90
13172;DHT22;6651;53.200;10.432;2023-10-31T14:14:25;11.90;99.90
13172;DHT22;6651;53.200;10.432;2023-10-31T14:16:50;11.80;99.90
13172;DHT22;6651;53.200;10.432;2023-10-31T14:19:16;11.90;99.90
13172;DHT22;6651;53.200;10.432;2023-10-31T14:21:43;11.80;99.90
13172;DHT22;6651;53.200;10.432;2023-10-31T14:24:09;11.80;99.90
13172;DHT22;6651;53.200;10.432;2023-10-31T14:26:35;11.80;99.90
13172;DHT22;6651;53.200;10.432;2023-10-31T14:29:01;11.80;99.90
13172;DHT22;6651;53.200;10.432;2023-10-31T14:31:27;11.90;99.90
13172;DHT22;6651;53.200;10.432;2023-10-31T14:33:53;11.80;99.90
13172;DHT22;6651;53.200;10.432;2023-10-31T14:36:18;11.90;99.90
13172;DHT22;6651;53.200;10.432;2023-10-31T14:38:44;11.90;99.90
13172;DHT22;6651;53.200;10.432;2023-10-31T14:41:10;11.90;99.90
13172;DHT22;6651;53.200;10.432;2023-10-31T14:43:36;11.80;99.90
13172;DHT22;6651;53.200;10.432;2023-10-31T14:46:02;11.80;99.90
13172;DHT22;6651;53.200;10.432;2023-10-31T14:48:28;11.90;99.90
13172;DHT22;6651;53.200;10.432;2023-10-31T14:50:54;11.80;99.90
13172;DHT22;6651;53.200;10.432;2023-10-31T14:53:22;11.90;99.90
13172;DHT22;6651;53.200;10.432;2023-10-31T14:55:48;11.80;99.90
13172;DHT22;6651;53.200;10.432;2023-10-31T14:58:13;11.80;99.90
13172;DHT22;6651;53.200;10.432;2023-10-31T15:00:39;11.80;99.90
13172;DHT22;6651;53.200;10.432;2023-10-31T15:03:05;11.70;99.90
13172;DHT22;6651;53.200;10.432;2023-10-31T15:05:30;11.70;99.90
13172;DHT22;6651;53.200;10.432;2023-10-31T15:07:56;11.60;99.90
13172;DHT22;6651;53.200;10.432;2023-10-31T15:10:25;11.50;99.90
13172;DHT22;6651;53.200;10.432;2023-10-31T15:12:54;11.20;99.90
13172;DHT22;6651;53.200;10.432;2023-10-31T15:15:19;11.00;99.90
13172;DHT22;6651;53.200;10.432;2023-10-31T15:17:45;10.70;99.90
13172;DHT22;6651;53.200;10.432;2023-10-31T15:20:13;10.60;99.90
13172;DHT22;6651;53.200;10.432;2023-10-31T15:22:39;10.40;99.90
13172;DHT22;6651;53.200;10.432;2023-10-31T15:25:06;10.20;99.90
13172;DHT22;6651;53.200;10.432;2023-10-31T15:27:31;10.10;99.90
13172;DHT22;6651;53.200;10.432;2023-10-31T15:29:57;10.00;99.90
13172;DHT22;6651;53.200;10.432;2023-10-31T15:32:23;10.00;99.90
13172;DHT22;6651;53.200;10.432;2023-10-31T15:34:48;10.00;99.90